Rickmers Seoul — V7EI5 — position and weather

sailwx.info

Track history (hours):
 
Tides and Currents Weather Stations Pressure Air Temp Water Temp Dewpoint Dewpoint Depression Visibility Wind Speed Wind Dir Waves Ship Positions

Rickmers Seoul

Last reported at 2017-Mar-23 09:33 UTC. Time now 2017-Mar-24 00:12 UTC.
Position N 39°02' W 075°09'.

Length 192.9 m; beam 27.8 m; draft 11.2 m.

Type: Cargo ship. MMSI: 538001809.

Date/timePositionNaut miles runAvg speedWind from/ knotsBaromVisibWave heightAir tempDewpointWater temp
2017-Mar-23 09:33N 39°02' W 075°09'1414.5
2017-Mar-23 08:33N 39°14' W 075°19'1515.2
2017-Mar-23 07:33N 39°26' W 075°32'1413.9
2017-Mar-23 06:33N 39°39' W 075°33'1212.2
2017-Mar-23 05:34N 39°49' W 075°23'1010.2
2017-Mar-23 04:34N 39°53' W 075°11'6 6.2
2017-Mar-23 03:33N 39°58' W 075°07'1 1.2
2017-Mar-23 02:28N 39°59' W 075°05'0 0.0
2017-Mar-23 01:31N 39°59' W 075°05'0 0.0
2017-Mar-23 00:31N 39°59' W 075°05'0 0.0
2017-Mar-22 23:31N 39°59' W 075°05'0 0.0
2017-Mar-22 22:31N 39°59' W 075°05'0 0.0
2017-Mar-22 21:31N 39°59' W 075°05'0 0.0
2017-Mar-22 20:31N 39°59' W 075°05'0 0.0
2017-Mar-22 19:31N 39°59' W 075°05'0 0.0
2017-Mar-22 18:31N 39°59' W 075°05'0 0.0
2017-Mar-22 17:31N 39°59' W 075°05'0 0.0
2017-Mar-22 16:31N 39°59' W 075°05'0 0.0
2017-Mar-22 15:31N 39°59' W 075°05'0 0.0
2017-Mar-22 14:31N 39°59' W 075°05'0 0.0
2017-Mar-22 13:31N 39°59' W 075°05'0 0.0
2017-Mar-22 12:31N 39°59' W 075°05'0 0.0
2017-Mar-22 11:31N 39°59' W 075°05'0 0.0
2017-Mar-22 10:31N 39°59' W 075°05'0 0.0
2017-Mar-22 09:31N 39°59' W 075°05'0 0.0
2017-Mar-22 08:31N 39°59' W 075°05'0 0.0
2017-Mar-22 07:31N 39°59' W 075°05'0 0.0
2017-Mar-22 06:31N 39°59' W 075°05'0 0.0
2017-Mar-22 05:31N 39°59' W 075°05'0 0.0
2017-Mar-22 04:31N 39°59' W 075°05'0 0.0
2017-Mar-22 03:31N 39°59' W 075°05'0 0.0
2017-Mar-22 02:31N 39°59' W 075°05'0 0.0
2017-Mar-22 01:31N 39°59' W 075°05'0 0.0
2017-Mar-22 00:31N 39°59' W 075°05'0 0.0
2017-Mar-21 23:31N 39°59' W 075°05'0 0.0
2017-Mar-21 22:31N 39°59' W 075°05'0 0.0
2017-Mar-21 21:31N 39°59' W 075°05'0 0.0
2017-Mar-21 20:31N 39°59' W 075°05'0 0.0
2017-Mar-21 19:31N 39°59' W 075°05'9 1.3
2017-Mar-21 12:33N 39°52' W 075°13'8 8.5
2017-Mar-21 11:33N 39°49' W 075°23'10 9.8
2017-Mar-21 10:33N 39°42' W 075°31'1413.9
2017-Mar-21 09:33N 39°28' W 075°34'50910.7
2017-Mar-19 10:06N 31°58' W 080°25'5 9.0
2017-Mar-19 09:33N 31°58' W 080°31'9 9.2
2017-Mar-19 08:33N 31°58' W 080°42'1212.1
2017-Mar-19 07:33N 32°02' W 080°55'8 7.0
2017-Mar-19 06:25N 32°05' W 081°04'0 0.0
2017-Mar-19 05:31N 32°05' W 081°04'0 0.0
2017-Mar-19 04:31N 32°05' W 081°04'0 0.0
2017-Mar-19 03:31N 32°05' W 081°04'0 0.0
2017-Mar-19 02:31N 32°05' W 081°04'0 0.0
2017-Mar-19 01:31N 32°05' W 081°04'0 0.0
2017-Mar-19 00:25N 32°05' W 081°04'0 0.0
2017-Mar-18 23:25N 32°05' W 081°04'0 0.0
2017-Mar-18 22:31N 32°05' W 081°04'0 0.0
2017-Mar-18 21:31N 32°05' W 081°04'0 0.0
2017-Mar-18 20:31N 32°05' W 081°04'0 0.0
2017-Mar-18 19:31N 32°05' W 081°04'0 0.0
2017-Mar-18 18:31N 32°05' W 081°04'0 0.0
2017-Mar-18 17:31N 32°05' W 081°04'0 0.0
2017-Mar-18 16:31N 32°05' W 081°04'0 0.0
2017-Mar-18 15:31N 32°05' W 081°04'0 0.0
2017-Mar-18 14:31N 32°05' W 081°04'0 0.0
2017-Mar-18 13:31N 32°05' W 081°04'0 0.0
2017-Mar-18 12:25N 32°05' W 081°04'0 0.0
2017-Mar-18 11:31N 32°05' W 081°04'0 0.0
2017-Mar-18 10:31N 32°05' W 081°04'2 1.6
2017-Mar-18 09:34N 32°05' W 081°02'9 8.5
2017-Mar-18 08:33N 32°02' W 080°53'1211.8
2017-Mar-18 07:33N 31°56' W 080°41'7 6.8
2017-Mar-18 06:33N 31°51' W 080°36'10 9.5
2017-Mar-18 05:33N 31°43' W 080°30'33113.7
2017-Mar-17 05:22N 26°16' W 079°29'1215.3
2017-Mar-17 04:33N 26°04' W 079°31'1615.5
2017-Mar-17 03:32N 25°48' W 079°33'  
Track history (hours):
 
Tides and Currents Weather Stations Pressure Air Temp Water Temp Dewpoint Dewpoint Depression Visibility Wind Speed Wind Dir Waves Ship Positions

Rickmers Seoul

Last reported at 2017-Mar-23 09:33 UTC. Time now 2017-Mar-24 00:12 UTC.
Position N 39°02' W 075°09'.

Length 192.9 m; beam 27.8 m; draft 11.2 m.

Type: Cargo ship. MMSI: 538001809.

Date/timePositionNaut miles runAvg speedWind from/ knotsBaromVisibWave heightAir tempDewpointWater temp
2017-Mar-23 09:33N 39°02' W 075°09'1414.5
2017-Mar-23 08:33N 39°14' W 075°19'1515.2
2017-Mar-23 07:33N 39°26' W 075°32'1413.9
2017-Mar-23 06:33N 39°39' W 075°33'1212.2
2017-Mar-23 05:34N 39°49' W 075°23'1010.2
2017-Mar-23 04:34N 39°53' W 075°11'6 6.2
2017-Mar-23 03:33N 39°58' W 075°07'1 1.2
2017-Mar-23 02:28N 39°59' W 075°05'0 0.0
2017-Mar-23 01:31N 39°59' W 075°05'0 0.0
2017-Mar-23 00:31N 39°59' W 075°05'0 0.0
2017-Mar-22 23:31N 39°59' W 075°05'0 0.0
2017-Mar-22 22:31N 39°59' W 075°05'0 0.0
2017-Mar-22 21:31N 39°59' W 075°05'0 0.0
2017-Mar-22 20:31N 39°59' W 075°05'0 0.0
2017-Mar-22 19:31N 39°59' W 075°05'0 0.0
2017-Mar-22 18:31N 39°59' W 075°05'0 0.0
2017-Mar-22 17:31N 39°59' W 075°05'0 0.0
2017-Mar-22 16:31N 39°59' W 075°05'0 0.0
2017-Mar-22 15:31N 39°59' W 075°05'0 0.0
2017-Mar-22 14:31N 39°59' W 075°05'0 0.0
2017-Mar-22 13:31N 39°59' W 075°05'0 0.0
2017-Mar-22 12:31N 39°59' W 075°05'0 0.0
2017-Mar-22 11:31N 39°59' W 075°05'0 0.0
2017-Mar-22 10:31N 39°59' W 075°05'0 0.0
2017-Mar-22 09:31N 39°59' W 075°05'0 0.0
2017-Mar-22 08:31N 39°59' W 075°05'0 0.0
2017-Mar-22 07:31N 39°59' W 075°05'0 0.0
2017-Mar-22 06:31N 39°59' W 075°05'0 0.0
2017-Mar-22 05:31N 39°59' W 075°05'0 0.0
2017-Mar-22 04:31N 39°59' W 075°05'0 0.0
2017-Mar-22 03:31N 39°59' W 075°05'0 0.0
2017-Mar-22 02:31N 39°59' W 075°05'0 0.0
2017-Mar-22 01:31N 39°59' W 075°05'0 0.0
2017-Mar-22 00:31N 39°59' W 075°05'0 0.0
2017-Mar-21 23:31N 39°59' W 075°05'0 0.0
2017-Mar-21 22:31N 39°59' W 075°05'0 0.0
2017-Mar-21 21:31N 39°59' W 075°05'0 0.0
2017-Mar-21 20:31N 39°59' W 075°05'0 0.0
2017-Mar-21 19:31N 39°59' W 075°05'9 1.3
2017-Mar-21 12:33N 39°52' W 075°13'8 8.5
2017-Mar-21 11:33N 39°49' W 075°23'10 9.8
2017-Mar-21 10:33N 39°42' W 075°31'1413.9
2017-Mar-21 09:33N 39°28' W 075°34'50910.7
2017-Mar-19 10:06N 31°58' W 080°25'5 9.0
2017-Mar-19 09:33N 31°58' W 080°31'9 9.2
2017-Mar-19 08:33N 31°58' W 080°42'1212.1
2017-Mar-19 07:33N 32°02' W 080°55'8 7.0
2017-Mar-19 06:25N 32°05' W 081°04'0 0.0
2017-Mar-19 05:31N 32°05' W 081°04'0 0.0
2017-Mar-19 04:31N 32°05' W 081°04'0 0.0
2017-Mar-19 03:31N 32°05' W 081°04'0 0.0
2017-Mar-19 02:31N 32°05' W 081°04'0 0.0
2017-Mar-19 01:31N 32°05' W 081°04'0 0.0
2017-Mar-19 00:25N 32°05' W 081°04'0 0.0
2017-Mar-18 23:25N 32°05' W 081°04'0 0.0
2017-Mar-18 22:31N 32°05' W 081°04'0 0.0
2017-Mar-18 21:31N 32°05' W 081°04'0 0.0
2017-Mar-18 20:31N 32°05' W 081°04'0 0.0
2017-Mar-18 19:31N 32°05' W 081°04'0 0.0
2017-Mar-18 18:31N 32°05' W 081°04'0 0.0
2017-Mar-18 17:31N 32°05' W 081°04'0 0.0
2017-Mar-18 16:31N 32°05' W 081°04'0 0.0
2017-Mar-18 15:31N 32°05' W 081°04'0 0.0
2017-Mar-18 14:31N 32°05' W 081°04'0 0.0
2017-Mar-18 13:31N 32°05' W 081°04'0 0.0
2017-Mar-18 12:25N 32°05' W 081°04'0 0.0
2017-Mar-18 11:31N 32°05' W 081°04'0 0.0
2017-Mar-18 10:31N 32°05' W 081°04'2 1.6
2017-Mar-18 09:34N 32°05' W 081°02'9 8.5
2017-Mar-18 08:33N 32°02' W 080°53'1211.8
2017-Mar-18 07:33N 31°56' W 080°41'7 6.8
2017-Mar-18 06:33N 31°51' W 080°36'10 9.5
2017-Mar-18 05:33N 31°43' W 080°30'33113.7
2017-Mar-17 05:22N 26°16' W 079°29'1215.3
2017-Mar-17 04:33N 26°04' W 079°31'1615.5
2017-Mar-17 03:32N 25°48' W 079°33'  

Dump ship's entire track history